createdAt,value
2022-11-09T00:00:41.200Z,99146.97
2022-11-09T00:03:08.752Z,99138.25
2022-11-09T00:05:36.120Z,99142.56
2022-11-09T00:08:06.392Z,99128.16
2022-11-09T00:10:33.996Z,99121.72
2022-11-09T00:13:02.894Z,99126.03
2022-11-09T00:15:30.285Z,99133.25
2022-11-09T00:18:01.294Z,99143.69
2022-11-09T00:20:28.675Z,99127.69
2022-11-09T00:22:56.051Z,99131.00
2022-11-09T00:25:23.629Z,99128.56
2022-11-09T00:27:51.053Z,99133.03
2022-11-09T00:30:19.985Z,99137.50
2022-11-09T00:32:48.643Z,99132.66
2022-11-09T00:35:16.173Z,99131.63
2022-11-09T00:37:43.600Z,99142.91
2022-11-09T00:40:12.664Z,99130.38
2022-11-09T00:42:40.022Z,99119.41
2022-11-09T00:45:08.292Z,99125.75
2022-11-09T00:47:37.009Z,99126.28
2022-11-09T00:50:04.895Z,99126.88
2022-11-09T00:52:32.288Z,99121.06
2022-11-09T00:55:00.014Z,99120.69
2022-11-09T00:57:27.456Z,99121.56
2022-11-09T00:59:54.836Z,99123.25
2022-11-09T01:02:22.239Z,99126.63
2022-11-09T01:04:51.456Z,99128.72
2022-11-09T01:07:19.528Z,99126.25
2022-11-09T01:09:47.924Z,99134.22
2022-11-09T01:12:15.943Z,99131.09
2022-11-09T01:14:43.462Z,99139.03
2022-11-09T01:17:10.866Z,99138.00
2022-11-09T01:19:38.231Z,99135.22
2022-11-09T01:22:06.928Z,99132.66
2022-11-09T01:24:34.324Z,99136.22
2022-11-09T01:27:01.668Z,99139.13
2022-11-09T01:29:29.172Z,99133.88
2022-11-09T01:31:56.987Z,99132.00
2022-11-09T01:34:24.640Z,99127.47
2022-11-09T01:36:52.434Z,99129.47
2022-11-09T01:39:21.760Z,99125.75
2022-11-09T01:41:50.759Z,99131.47
2022-11-09T01:44:19.667Z,99128.06
2022-11-09T01:46:50.622Z,99134.59
2022-11-09T01:49:24.079Z,99124.72
2022-11-09T01:51:53.907Z,99118.31
2022-11-09T01:54:30.266Z,99113.25
2022-11-09T01:57:00.657Z,99112.72
2022-11-09T01:59:30.664Z,99120.53
2022-11-09T02:01:59.475Z,99119.81
2022-11-09T02:04:30.329Z,99120.00
2022-11-09T02:06:58.510Z,99112.81
2022-11-09T02:09:30.056Z,99107.19
2022-11-09T02:11:57.626Z,99096.09
2022-11-09T02:14:27.619Z,99103.22
2022-11-09T02:16:55.741Z,99109.25
2022-11-09T02:19:23.124Z,99110.00
2022-11-09T02:21:51.908Z,99106.63
2022-11-09T02:24:19.639Z,99107.00
2022-11-09T02:26:49.489Z,99108.28
2022-11-09T02:29:23.015Z,99102.63
2022-11-09T02:31:54.517Z,99101.13
2022-11-09T02:34:22.952Z,99097.25
2022-11-09T02:36:51.827Z,99106.88
2022-11-09T02:39:24.685Z,99107.75
2022-11-09T02:41:55.504Z,99099.59
2022-11-09T02:44:24.695Z,99096.47
2022-11-09T02:46:52.552Z,99096.53
2022-11-09T02:49:20.092Z,99090.66
2022-11-09T02:51:47.495Z,99099.28
2022-11-09T02:54:16.250Z,99091.19
2022-11-09T02:56:43.617Z,99097.72
2022-11-09T02:59:13.093Z,99084.63
2022-11-09T03:01:40.895Z,99091.78
2022-11-09T03:04:08.415Z,99099.16
2022-11-09T03:06:36.788Z,99098.91
2022-11-09T03:09:11.864Z,99106.34
2022-11-09T03:11:41.861Z,99095.25
2022-11-09T03:14:11.457Z,99094.69
2022-11-09T03:16:47.720Z,99093.41
2022-11-09T03:19:17.527Z,99097.94
2022-11-09T03:21:46.904Z,99099.56
2022-11-09T03:24:14.305Z,99096.97
2022-11-09T03:26:43.887Z,99092.00
2022-11-09T03:29:11.414Z,99103.91
2022-11-09T03:31:39.691Z,99114.81
2022-11-09T03:34:09.931Z,99104.91
2022-11-09T03:36:37.368Z,99103.88
2022-11-09T03:39:04.869Z,99097.34
2022-11-09T03:41:33.263Z,99095.78
2022-11-09T03:44:02.052Z,99111.16
2022-11-09T03:46:29.424Z,99111.22
2022-11-09T03:48:56.770Z,99099.66
2022-11-09T03:51:24.317Z,99105.44
2022-11-09T03:53:51.766Z,99104.34
2022-11-09T03:56:19.255Z,99104.94
2022-11-09T03:58:46.603Z,99113.56
2022-11-09T04:01:15.564Z,99126.28
2022-11-09T04:03:43.059Z,99117.25
2022-11-09T04:06:10.432Z,99108.22
2022-11-09T04:08:37.829Z,99118.63
2022-11-09T04:11:05.211Z,99121.16
2022-11-09T04:13:32.569Z,99111.56
2022-11-09T04:15:59.967Z,99108.22
2022-11-09T04:18:28.647Z,99103.16
2022-11-09T04:20:58.702Z,99104.16
2022-11-09T04:23:26.348Z,99105.59
2022-11-09T04:25:53.702Z,99109.84
2022-11-09T04:28:21.079Z,99106.09
2022-11-09T04:30:48.504Z,99103.22
2022-11-09T04:33:15.871Z,99099.06
2022-11-09T04:35:44.749Z,99114.59
2022-11-09T04:38:14.180Z,99116.66
2022-11-09T04:40:41.760Z,99127.28
2022-11-09T04:43:11.971Z,99123.16
2022-11-09T04:45:39.361Z,99130.31
2022-11-09T04:48:08.500Z,99117.88
2022-11-09T04:50:36.262Z,99118.53
2022-11-09T04:53:09.737Z,99127.63
2022-11-09T04:55:39.055Z,99131.72
2022-11-09T04:58:07.434Z,99133.97
2022-11-09T05:00:35.239Z,99138.19
2022-11-09T05:03:03.386Z,99132.31
2022-11-09T05:05:31.261Z,99147.44
2022-11-09T05:07:58.687Z,99135.75
2022-11-09T05:10:27.420Z,99147.63
2022-11-09T05:12:58.635Z,99143.72
2022-11-09T05:15:26.090Z,99147.38
2022-11-09T05:17:53.798Z,99151.28
2022-11-09T05:20:21.541Z,99142.25
2022-11-09T05:23:06.287Z,99127.41
2022-11-09T05:25:35.955Z,99141.44
2022-11-09T05:28:03.797Z,99144.78
2022-11-09T05:30:31.386Z,99147.88
2022-11-09T05:32:58.817Z,99138.06
2022-11-09T05:35:26.211Z,99131.84
2022-11-09T05:37:53.636Z,99135.34
2022-11-09T05:40:21.395Z,99137.34
2022-11-09T05:42:50.200Z,99135.31
2022-11-09T05:45:41.515Z,99140.31
2022-11-09T05:48:07.314Z,99130.31
2022-11-09T05:50:34.788Z,99127.09
2022-11-09T05:53:34.673Z,99134.13
2022-11-09T05:56:04.052Z,99134.72
2022-11-09T05:58:36.242Z,99133.53
2022-11-09T06:01:05.200Z,99133.19
2022-11-09T06:03:32.662Z,99144.53
2022-11-09T06:06:07.754Z,99140.41
2022-11-09T06:08:36.006Z,99135.63
2022-11-09T06:11:05.512Z,99136.75
2022-11-09T06:13:34.451Z,99146.03
2022-11-09T06:16:03.197Z,99150.91
2022-11-09T06:18:31.928Z,99154.22
2022-11-09T06:21:00.652Z,99145.31
2022-11-09T06:23:29.225Z,99153.41
2022-11-09T06:25:58.696Z,99144.31
2022-11-09T06:28:26.447Z,99143.31
2022-11-09T06:30:58.142Z,99153.81
2022-11-09T06:33:25.668Z,99156.34
2022-11-09T06:35:56.314Z,99153.81
2022-11-09T06:38:24.109Z,99167.75
2022-11-09T06:40:52.388Z,99165.63
2022-11-09T06:43:20.186Z,99170.31
2022-11-09T06:45:47.964Z,99168.72
2022-11-09T06:48:16.838Z,99177.25
2022-11-09T06:50:44.453Z,99178.00
2022-11-09T06:53:13.600Z,99176.97
2022-11-09T06:55:49.916Z,99180.13
2022-11-09T06:58:19.503Z,99189.47
2022-11-09T07:00:47.216Z,99199.72
2022-11-09T07:03:15.243Z,99200.47
2022-11-09T07:05:44.655Z,99187.84
2022-11-09T07:08:12.611Z,99194.56
2022-11-09T07:10:40.401Z,99194.75
2022-11-09T07:13:08.775Z,99198.97
2022-11-09T07:15:37.408Z,99209.81
2022-11-09T07:18:07.659Z,99209.34
2022-11-09T07:20:35.289Z,99206.25
2022-11-09T07:23:04.001Z,99200.41
2022-11-09T07:25:32.030Z,99209.47
2022-11-09T07:28:03.793Z,99213.19
2022-11-09T07:30:31.181Z,99197.13
2022-11-09T07:33:09.264Z,99205.84
2022-11-09T07:35:37.481Z,99217.22
2022-11-09T07:38:06.356Z,99213.38
2022-11-09T07:40:34.333Z,99207.50
2022-11-09T07:43:02.355Z,99217.59
2022-11-09T07:45:33.080Z,99211.28
2022-11-09T07:48:02.053Z,99205.94
2022-11-09T07:50:30.774Z,99212.50
2022-11-09T07:52:58.485Z,99199.19
2022-11-09T07:55:28.081Z,99206.88
2022-11-09T07:57:56.650Z,99211.19
2022-11-09T08:00:24.307Z,99211.16
2022-11-09T08:02:52.004Z,99215.34
2022-11-09T08:05:19.590Z,99209.50
2022-11-09T08:07:47.549Z,99223.97
2022-11-09T08:10:15.471Z,99213.31
2022-11-09T08:12:44.188Z,99217.22
2022-11-09T08:15:12.016Z,99209.03
2022-11-09T08:17:39.455Z,99209.97
2022-11-09T08:20:07.925Z,99217.41
2022-11-09T08:22:42.007Z,99214.88
2022-11-09T08:25:10.372Z,99223.03
2022-11-09T08:27:40.098Z,99223.84
2022-11-09T08:30:13.201Z,99230.59
2022-11-09T08:32:41.194Z,99236.97
2022-11-09T08:35:10.398Z,99240.72
2022-11-09T08:37:38.452Z,99231.81
2022-11-09T08:40:08.003Z,99237.09
2022-11-09T08:42:35.384Z,99238.50
2022-11-09T08:45:02.879Z,99244.94
2022-11-09T08:47:31.591Z,99240.78
2022-11-09T08:49:58.992Z,99253.28
2022-11-09T08:52:26.370Z,99245.19
2022-11-09T08:54:53.759Z,99245.00
2022-11-09T08:57:21.655Z,99242.59
2022-11-09T08:59:49.139Z,99250.63
2022-11-09T09:02:17.051Z,99245.00
2022-11-09T09:04:45.816Z,99247.41
2022-11-09T09:07:13.948Z,99245.25
2022-11-09T09:09:41.385Z,99253.16
2022-11-09T09:12:09.910Z,99259.50
2022-11-09T09:14:37.444Z,99268.22
2022-11-09T09:17:04.836Z,99266.78
2022-11-09T09:19:32.859Z,99267.66
2022-11-09T09:22:01.586Z,99262.75
2022-11-09T09:24:28.968Z,99264.84
2022-11-09T09:26:56.385Z,99267.97
2022-11-09T09:29:23.976Z,99267.94
2022-11-09T09:31:51.329Z,99274.84
2022-11-09T09:34:18.986Z,99274.28
2022-11-09T09:36:48.204Z,99275.84
2022-11-09T09:39:17.202Z,99274.44
2022-11-09T09:41:48.229Z,99285.94
2022-11-09T09:44:24.289Z,99293.97
2022-11-09T09:46:56.085Z,99293.47
2022-11-09T09:49:27.349Z,99287.53
2022-11-09T09:51:57.925Z,99293.22
2022-11-09T09:54:28.202Z,99301.53
2022-11-09T09:56:59.372Z,99296.72
2022-11-09T09:59:33.202Z,99290.72
2022-11-09T10:02:00.695Z,99298.03
2022-11-09T10:04:34.816Z,99289.63
2022-11-09T10:07:05.692Z,99290.09
2022-11-09T10:09:46.339Z,99296.75
2022-11-09T10:12:20.671Z,99295.91
2022-11-09T10:15:02.861Z,99293.47
2022-11-09T10:17:39.740Z,99285.44
2022-11-09T10:20:27.188Z,99281.38
2022-11-09T10:23:01.772Z,99268.13
2022-11-09T10:25:57.932Z,99277.50
2022-11-09T10:28:21.222Z,99293.66
2022-11-09T10:30:50.236Z,99293.41
2022-11-09T10:33:21.197Z,99273.41
2022-11-09T10:35:51.460Z,99279.72
2022-11-09T10:38:22.530Z,99274.75
2022-11-09T10:41:16.891Z,99267.03
2022-11-09T10:44:02.576Z,99271.56
2022-11-09T10:47:18.903Z,99265.13
2022-11-09T10:50:15.135Z,99285.13
2022-11-09T10:53:15.461Z,99281.03
2022-11-09T10:56:19.913Z,99244.47
2022-11-09T10:59:31.453Z,99276.28
2022-11-09T11:02:45.148Z,99278.91
2022-11-09T11:05:33.464Z,99274.06
2022-11-09T11:08:26.583Z,99273.06
2022-11-09T11:11:33.269Z,99276.03
2022-11-09T11:14:23.745Z,99266.63
2022-11-09T11:17:22.344Z,99284.66
2022-11-09T11:20:32.623Z,99278.38
2022-11-09T11:23:23.752Z,99280.22
2022-11-09T11:26:35.309Z,99267.38
2022-11-09T11:29:44.414Z,99280.06
2022-11-09T11:32:30.600Z,99273.91
2022-11-09T11:35:18.677Z,99276.66
2022-11-09T11:38:15.912Z,99274.13
2022-11-09T11:41:06.630Z,99266.59
2022-11-09T11:43:58.800Z,99273.59
2022-11-09T11:46:47.174Z,99272.47
2022-11-09T11:49:44.848Z,99284.47
2022-11-09T11:52:37.197Z,99281.78
2022-11-09T11:55:52.846Z,99291.13
2022-11-09T11:58:50.988Z,99295.56
2022-11-09T12:01:50.353Z,99289.38
2022-11-09T12:05:00.473Z,99303.41
2022-11-09T12:07:56.109Z,99305.56
2022-11-09T12:10:50.599Z,99286.38
2022-11-09T12:14:00.547Z,99287.03
2022-11-09T12:16:52.769Z,99302.00
2022-11-09T12:20:04.901Z,99279.53
2022-11-09T12:23:00.663Z,99285.09
2022-11-09T12:25:51.155Z,99281.06
2022-11-09T12:28:52.414Z,99289.47
2022-11-09T12:31:50.248Z,99291.53
2022-11-09T12:34:39.884Z,99280.38
2022-11-09T12:37:28.424Z,99278.97
2022-11-09T12:40:23.310Z,99292.16
2022-11-09T12:43:15.911Z,99276.84
2022-11-09T12:46:05.135Z,99297.47
2022-11-09T12:48:52.821Z,99298.56
2022-11-09T12:51:38.860Z,99295.69
2022-11-09T12:54:25.568Z,99298.31
2022-11-09T12:57:16.216Z,99305.22
2022-11-09T13:00:02.510Z,99296.84
2022-11-09T13:02:57.137Z,99300.53
2022-11-09T13:05:45.708Z,99307.25
2022-11-09T13:08:32.203Z,99300.81
2022-11-09T13:11:23.061Z,99291.84
2022-11-09T13:14:35.285Z,99316.44
2022-11-09T13:17:52.543Z,99295.56
2022-11-09T13:20:58.060Z,99299.69
2022-11-09T13:24:03.688Z,99301.06
2022-11-09T13:26:58.074Z,99302.72
2022-11-09T13:29:55.270Z,99302.78
2022-11-09T13:33:19.593Z,99306.94
2022-11-09T13:36:23.888Z,99311.13
2022-11-09T13:39:33.684Z,99321.25
2022-11-09T13:42:27.700Z,99302.84
2022-11-09T13:45:28.248Z,99325.19
2022-11-09T13:48:40.244Z,99327.31
2022-11-09T13:51:40.385Z,99328.41
2022-11-09T13:54:31.133Z,99334.41
2022-11-09T13:57:18.350Z,99336.91
2022-11-09T14:00:06.207Z,99339.88
2022-11-09T14:03:02.587Z,99346.06
2022-11-09T14:05:50.590Z,99345.94
2022-11-09T14:08:40.323Z,99341.69
2022-11-09T14:11:54.320Z,99342.91
2022-11-09T14:15:08.452Z,99344.56
2022-11-09T14:18:04.125Z,99352.09
2022-11-09T14:20:55.976Z,99354.47
2022-11-09T14:23:42.246Z,99358.69
2022-11-09T14:26:28.063Z,99353.19
2022-11-09T14:29:21.920Z,99345.69
2022-11-09T14:32:24.478Z,99353.03
2022-11-09T14:35:13.001Z,99367.41
2022-11-09T14:38:01.122Z,99369.41
2022-11-09T14:40:48.963Z,99359.44
2022-11-09T14:43:38.507Z,99373.34
2022-11-09T14:46:28.020Z,99364.97
2022-11-09T14:49:15.749Z,99368.41
2022-11-09T14:52:02.332Z,99369.81
2022-11-09T14:54:49.424Z,99365.25
2022-11-09T14:57:36.205Z,99369.28
2022-11-09T15:00:28.765Z,99372.38
2022-11-09T15:03:26.560Z,99365.28
2022-11-09T15:06:16.212Z,99373.78
2022-11-09T15:09:05.043Z,99375.09
2022-11-09T15:11:51.417Z,99393.41
2022-11-09T15:14:37.503Z,99395.63
2022-11-09T15:17:27.160Z,99392.13
2022-11-09T15:20:29.405Z,99388.88
2022-11-09T15:23:38.195Z,99390.53
2022-11-09T15:26:33.537Z,99397.56
2022-11-09T15:29:31.880Z,99406.97
2022-11-09T15:32:19.338Z,99411.09
2022-11-09T15:35:15.637Z,99417.31
2022-11-09T15:38:01.884Z,99399.78
2022-11-09T15:40:49.232Z,99409.00
2022-11-09T15:43:35.355Z,99404.50
2022-11-09T15:46:23.918Z,99404.94
2022-11-09T15:49:16.103Z,99405.94
2022-11-09T15:52:02.330Z,99411.69
2022-11-09T15:54:48.334Z,99424.84
2022-11-09T15:57:35.816Z,99410.28
2022-11-09T16:00:23.162Z,99411.06
2022-11-09T16:03:10.318Z,99421.97
2022-11-09T16:05:56.485Z,99442.16
2022-11-09T16:08:42.512Z,99437.22
2022-11-09T16:11:28.415Z,99425.72
2022-11-09T16:14:17.784Z,99435.78
2022-11-09T16:17:04.243Z,99440.13
2022-11-09T16:19:52.542Z,99431.50
2022-11-09T16:22:38.814Z,99447.28
2022-11-09T16:25:24.834Z,99452.47
2022-11-09T16:28:11.284Z,99459.63
2022-11-09T16:30:58.736Z,99469.69
2022-11-09T16:33:44.660Z,99479.34
2022-11-09T16:36:31.530Z,99474.22
2022-11-09T16:39:17.932Z,99478.94
2022-11-09T16:42:07.219Z,99476.25
2022-11-09T16:44:58.644Z,99485.25
2022-11-09T16:47:48.132Z,99493.03
2022-11-09T16:50:34.218Z,99494.84
2022-11-09T16:53:25.548Z,99497.50
2022-11-09T16:56:12.598Z,99519.84
2022-11-09T16:58:58.811Z,99518.34
2022-11-09T17:01:51.032Z,99523.53
2022-11-09T17:04:38.648Z,99523.69
2022-11-09T17:07:24.812Z,99525.19
2022-11-09T17:10:11.512Z,99534.25
2022-11-09T17:12:57.856Z,99532.66
2022-11-09T17:15:45.062Z,99538.41
2022-11-09T17:18:30.903Z,99546.63
2022-11-09T17:21:24.573Z,99541.75
2022-11-09T17:24:10.939Z,99548.88
2022-11-09T17:27:00.820Z,99548.44
2022-11-09T17:29:52.543Z,99551.31
2022-11-09T17:32:46.116Z,99555.72
2022-11-09T17:35:36.546Z,99563.13
2022-11-09T17:38:23.859Z,99567.00
2022-11-09T17:41:11.921Z,99572.16
2022-11-09T17:44:01.233Z,99571.66
2022-11-09T17:46:47.356Z,99570.34
2022-11-09T17:49:34.221Z,99578.13
2022-11-09T17:52:20.596Z,99586.50
2022-11-09T17:55:08.790Z,99579.38
2022-11-09T17:57:54.886Z,99584.78
2022-11-09T18:00:41.271Z,99592.03
2022-11-09T18:03:27.520Z,99592.94
2022-11-09T18:06:15.590Z,99611.97
2022-11-09T18:09:39.145Z,99604.03
2022-11-09T18:12:09.623Z,99612.44
2022-11-09T18:14:55.796Z,99610.28
2022-11-09T18:17:42.084Z,99612.16
2022-11-09T18:20:27.981Z,99598.44
2022-11-09T18:23:13.902Z,99622.94
2022-11-09T18:26:00.457Z,99613.75
2022-11-09T18:28:47.771Z,99616.22
2022-11-09T18:31:33.653Z,99627.28
2022-11-09T18:34:19.640Z,99630.78
2022-11-09T18:37:05.658Z,99626.09
2022-11-09T18:39:51.518Z,99636.13
2022-11-09T18:42:37.704Z,99636.06
2022-11-09T18:45:24.994Z,99625.38
2022-11-09T18:48:10.906Z,99636.78
2022-11-09T18:50:58.648Z,99630.34
2022-11-09T18:53:45.785Z,99648.75
2022-11-09T18:56:31.870Z,99646.47
2022-11-09T18:59:17.967Z,99650.56
2022-11-09T19:02:07.191Z,99647.13
2022-11-09T19:04:53.196Z,99657.66
2022-11-09T19:07:38.963Z,99655.94
2022-11-09T19:10:25.062Z,99668.72
2022-11-09T19:13:11.194Z,99675.03
2022-11-09T19:15:58.406Z,99677.59
2022-11-09T19:18:46.286Z,99682.38
2022-11-09T19:21:38.688Z,99692.59
2022-11-09T19:24:28.453Z,99688.13
2022-11-09T19:27:14.363Z,99692.97
2022-11-09T19:30:04.811Z,99699.53
2022-11-09T19:32:54.169Z,99703.06
2022-11-09T19:35:41.560Z,99704.91
2022-11-09T19:38:27.511Z,99705.91
2022-11-09T19:41:13.527Z,99721.91
2022-11-09T19:44:00.036Z,99725.69
2022-11-09T19:46:46.123Z,99716.22
2022-11-09T19:49:34.673Z,99728.63
2022-11-09T19:52:22.410Z,99733.81
2022-11-09T19:55:09.495Z,99730.97
2022-11-09T19:57:55.710Z,99738.66
2022-11-09T20:00:42.217Z,99743.84
2022-11-09T20:03:28.100Z,99748.94
2022-11-09T20:06:13.998Z,99761.44
2022-11-09T20:09:01.808Z,99757.81
2022-11-09T20:12:06.185Z,99766.38
2022-11-09T20:14:52.171Z,99770.94
2022-11-09T20:17:38.429Z,99771.97
2022-11-09T20:20:24.613Z,99776.66
2022-11-09T20:23:10.630Z,99783.59
2022-11-09T20:26:05.386Z,99783.84
2022-11-09T20:28:53.037Z,99792.50
2022-11-09T20:31:39.386Z,99796.09
2022-11-09T20:34:25.884Z,99805.13
2022-11-09T20:37:11.903Z,99797.69
2022-11-09T20:39:58.232Z,99806.25
2022-11-09T20:42:45.540Z,99808.81
2022-11-09T20:45:31.499Z,99805.00
2022-11-09T20:48:38.563Z,99816.59
2022-11-09T20:51:24.684Z,99816.59
2022-11-09T20:54:10.751Z,99825.38
2022-11-09T20:56:56.924Z,99834.53
2022-11-09T20:59:44.252Z,99824.09
2022-11-09T21:02:30.347Z,99841.81
2022-11-09T21:05:16.783Z,99844.44
2022-11-09T21:08:02.808Z,99844.28
2022-11-09T21:10:48.802Z,99850.84
2022-11-09T21:13:34.865Z,99848.25
2022-11-09T21:16:23.436Z,99850.66
2022-11-09T21:19:09.611Z,99856.09
2022-11-09T21:21:56.508Z,99859.47
2022-11-09T21:24:59.799Z,99859.38
2022-11-09T21:28:03.236Z,99861.63
2022-11-09T21:30:49.385Z,99868.13
2022-11-09T21:33:36.619Z,99865.81
2022-11-09T21:36:23.077Z,99878.44
2022-11-09T21:39:09.197Z,99878.44
2022-11-09T21:41:55.516Z,99879.13
2022-11-09T21:44:41.669Z,99884.13
2022-11-09T21:47:27.720Z,99885.53
2022-11-09T21:50:15.132Z,99888.63
2022-11-09T21:53:01.458Z,99893.19
2022-11-09T21:55:47.812Z,99883.75
2022-11-09T21:58:34.091Z,99882.75
2022-11-09T22:01:20.524Z,99890.66
2022-11-09T22:04:06.440Z,99884.78
2022-11-09T22:06:53.915Z,99900.03
2022-11-09T22:10:08.256Z,99899.75
2022-11-09T22:13:03.155Z,99903.88
2022-11-09T22:16:07.883Z,99900.22
2022-11-09T22:19:11.865Z,99901.03
2022-11-09T22:21:59.439Z,99901.69
2022-11-09T22:24:45.671Z,99913.97
2022-11-09T22:27:32.403Z,99910.31
2022-11-09T22:30:18.527Z,99916.75
2022-11-09T22:33:04.997Z,99913.41
2022-11-09T22:35:54.649Z,99922.50
2022-11-09T22:38:42.024Z,99921.97
2022-11-09T22:41:28.071Z,99916.38
2022-11-09T22:44:14.042Z,99924.84
2022-11-09T22:47:00.280Z,99934.06
2022-11-09T22:49:46.596Z,99933.97
2022-11-09T22:52:32.894Z,99940.91
2022-11-09T22:55:20.284Z,99947.22
2022-11-09T22:58:06.082Z,99944.28
2022-11-09T23:00:52.160Z,99958.72
2022-11-09T23:03:38.795Z,99958.03
2022-11-09T23:06:25.364Z,99956.69
2022-11-09T23:09:11.667Z,99956.91
2022-11-09T23:11:58.810Z,99979.44
2022-11-09T23:15:02.048Z,99969.09
2022-11-09T23:18:05.727Z,99982.31
2022-11-09T23:20:51.747Z,99976.97
2022-11-09T23:23:37.929Z,99991.13
2022-11-09T23:26:24.892Z,99992.94
2022-11-09T23:29:12.348Z,99994.66
2022-11-09T23:31:58.475Z,100001.63
2022-11-09T23:34:44.462Z,100001.19
2022-11-09T23:37:30.611Z,100000.28
2022-11-09T23:40:16.897Z,100005.81
2022-11-09T23:43:03.527Z,100004.63
2022-11-09T23:45:51.083Z,100012.22
2022-11-09T23:48:37.108Z,100011.22
2022-11-09T23:51:23.614Z,100015.13
2022-11-09T23:54:09.451Z,100026.41
2022-11-09T23:56:55.669Z,100030.50
2022-11-09T23:59:41.805Z,100040.91
